Time;durP1;ratioP1;P1;durP2;ratioP2;P2;SDS_P1;SDS_P2;PMS_P1;PMS_P2;Temp;Humidity;BMP_temperature;BMP_pressure;BME280_temperature;BME280_humidity;BME280_pressure;Samples;Min_cycle;Max_cycle;Signal;HPM_P1;HPM_P2
2022/09/22 00:00:16;;;;;;;5.40;4.60;;;7.90;99.90;;;;;;5033901;28;20049;-71
2022/09/22 00:02:42;;;;;;;7.85;4.90;;;7.80;99.90;;;;;;5033285;28;20095;-71
2022/09/22 00:05:07;;;;;;;5.43;4.20;;;7.80;99.90;;;;;;5033967;28;20057;-71
2022/09/22 00:07:33;;;;;;;7.53;4.40;;;7.70;99.90;;;;;;5033871;28;20041;-71
2022/09/22 00:09:59;;;;;;;6.32;4.75;;;7.70;99.90;;;;;;5033739;28;20053;-71
2022/09/22 00:12:24;;;;;;;9.60;5.20;;;7.70;99.90;;;;;;5032659;28;20041;-71
2022/09/22 00:14:50;;;;;;;6.15;4.50;;;7.70;99.90;;;;;;5033619;28;20038;-71
2022/09/22 00:17:16;;;;;;;7.07;4.30;;;7.70;99.90;;;;;;5033618;28;20095;-71
2022/09/22 00:19:42;;;;;;;8.50;4.53;;;7.60;99.90;;;;;;5033567;28;20128;-71
2022/09/22 00:22:07;;;;;;;6.05;4.60;;;7.60;99.90;;;;;;5033413;28;20052;-70
2022/09/22 00:24:33;;;;;;;6.68;4.88;;;7.60;99.90;;;;;;5033357;28;20048;-70
2022/09/22 00:26:59;;;;;;;5.57;4.50;;;7.50;99.90;;;;;;5033315;28;20052;-71
2022/09/22 00:29:29;;;;;;;5.25;4.07;;;7.50;99.90;;;;;;5033453;28;20124;-70
2022/09/22 00:31:55;;;;;;;6.00;3.92;;;7.50;99.90;;;;;;5033440;28;20041;-71
2022/09/22 00:34:23;;;;;;;5.45;4.10;;;7.40;99.90;;;;;;5033545;28;20069;-70
2022/09/22 00:36:49;;;;;;;;;;;7.40;99.90;;;;;;5033655;28;20071;-71
2022/09/22 00:39:16;;;;;;;6.97;4.03;;;7.40;99.90;;;;;;5035566;28;20019;-71
2022/09/22 00:41:46;;;;;;;4.87;4.23;;;7.40;99.90;;;;;;5053287;28;20119;-71
2022/09/22 00:44:20;;;;;;;6.20;4.43;;;7.40;99.90;;;;;;5053243;28;20290;-70
2022/09/22 00:46:51;;;;;;;6.25;3.90;;;7.40;99.90;;;;;;5053065;28;20045;-71
2022/09/22 00:49:23;;;;;;;4.88;3.80;;;7.30;99.90;;;;;;5053527;28;20052;-70
2022/09/22 00:51:49;;;;;;;5.15;3.63;;;7.30;99.90;;;;;;5052965;28;20044;-71
2022/09/22 00:54:16;;;;;;;3.92;3.45;;;7.30;99.90;;;;;;5053212;28;20036;-71
2022/09/22 00:56:50;;;;;;;4.55;4.15;;;7.30;99.90;;;;;;5053335;28;20041;-71
2022/09/22 00:59:17;;;;;;;5.88;3.63;;;7.20;99.90;;;;;;5053191;28;20391;-71
2022/09/22 01:01:43;;;;;;;5.88;3.83;;;7.20;99.90;;;;;;5052988;28;20102;-71
2022/09/22 01:04:11;;;;;;;6.13;4.43;;;7.20;99.90;;;;;;5053008;28;20503;-70
2022/09/22 01:06:38;;;;;;;5.75;4.20;;;7.20;99.90;;;;;;5052848;28;20079;-71
2022/09/22 01:09:04;;;;;;;3.85;3.53;;;7.10;99.90;;;;;;5053112;28;20045;-71
2022/09/22 01:11:30;;;;;;;7.88;4.10;;;7.10;99.90;;;;;;5052988;28;20037;-70
2022/09/22 01:14:28;;;;;;;4.22;3.50;;;7.10;99.90;;;;;;5054809;28;20049;-71
2022/09/22 01:17:11;;;;;;;6.90;4.53;;;7.00;99.90;;;;;;5057040;28;20052;-71
2022/09/22 01:20:09;;;;;;;4.55;3.97;;;7.10;99.90;;;;;;5057029;28;20114;-71
2022/09/22 01:23:07;;;;;;;4.50;4.10;;;7.00;99.90;;;;;;5057012;28;20091;-71
2022/09/22 01:25:39;;;;;;;4.45;3.50;;;6.90;99.90;;;;;;5057218;28;20037;-70
2022/09/22 01:28:31;;;;;;;6.22;3.60;;;7.00;99.90;;;;;;5057015;28;20450;-70
2022/09/22 01:31:13;;;;;;;5.32;4.03;;;6.90;99.90;;;;;;5056726;28;20110;-70
2022/09/22 01:33:51;;;;;;;5.75;4.05;;;6.90;99.90;;;;;;5056440;28;20059;-71
2022/09/22 01:36:20;;;;;;;5.25;3.90;;;6.90;99.90;;;;;;5056725;28;20099;-70
2022/09/22 01:38:59;;;;;;;6.35;3.90;;;6.90;99.90;;;;;;5056562;28;20053;-70
2022/09/22 01:41:58;;;;;;;5.55;3.97;;;6.90;99.90;;;;;;5036668;28;20123;-70
2022/09/22 01:44:33;;;;;;;5.70;4.60;;;6.80;99.90;;;;;;5036661;28;20095;-70
2022/09/22 01:47:18;;;;;;;6.80;4.60;;;6.80;99.90;;;;;;5036542;28;20045;-70
2022/09/22 01:49:50;;;;;;;6.05;5.30;;;6.80;99.90;;;;;;5036436;28;20045;-70
2022/09/22 01:52:21;;;;;;;6.57;4.38;;;6.80;99.90;;;;;;5036207;28;20091;-70
2022/09/22 01:55:17;;;;;;;5.20;4.22;;;6.80;99.90;;;;;;5036603;28;20396;-70
2022/09/22 01:58:02;;;;;;;4.55;3.90;;;6.70;99.90;;;;;;5034767;28;20443;-70
2022/09/22 02:00:27;;;;;;;6.40;4.20;;;6.80;99.90;;;;;;5036104;28;20045;-70
2022/09/22 02:03:05;;;;;;;4.65;4.00;;;6.70;99.90;;;;;;5034747;28;20045;-70
2022/09/22 02:05:41;;;;;;;5.85;5.00;;;6.70;99.90;;;;;;5036191;28;20051;-71
2022/09/22 02:08:13;;;;;;;5.57;4.20;;;6.70;99.90;;;;;;5036135;28;20053;-70
2022/09/22 02:10:44;;;;;;;4.35;3.95;;;6.70;99.90;;;;;;5035940;28;20044;-71
2022/09/22 02:13:10;;;;;;;5.93;4.00;;;6.60;99.90;;;;;;5035881;28;20049;-73
2022/09/22 02:18:38;;;;;;;4.30;3.90;;;5.70;99.90;;;;;;5035778;28;20502;-70
2022/09/22 02:21:06;;;;;;;4.68;3.92;;;;;;;;;;5035806;28;20515;-71
2022/09/22 02:23:32;;;;;;;4.18;3.78;;;6.50;99.90;;;;;;5035573;28;20531;-71
2022/09/22 02:26:00;;;;;;;5.38;4.68;;;6.50;99.90;;;;;;5034826;28;20480;-71
2022/09/22 02:28:29;;;;;;;4.75;3.50;;;6.60;99.90;;;;;;5035609;28;20488;-71
2022/09/22 02:30:57;;;;;;;5.50;3.90;;;6.60;99.90;;;;;;5035463;28;20516;-71
2022/09/22 02:33:27;;;;;;;4.60;4.10;;;;;;;;;;5035614;28;20413;-71
2022/09/22 02:36:02;;;;;;;4.55;3.53;;;;;;;;;;5035412;28;20493;-71
2022/09/22 02:38:33;;;;;;;5.55;3.35;;;;;;;;;;5035904;28;20183;-71
2022/09/22 02:41:02;;;;;;;4.25;3.58;;;;;;;;;;5052137;28;20484;-71
2022/09/22 02:43:33;;;;;;;4.43;4.00;;;;;;;;;;5055466;28;20136;-71
2022/09/22 02:46:07;;;;;;;4.93;3.80;;;;;;;;;;5055341;28;20116;-70
2022/09/22 02:48:43;;;;;;;3.88;3.58;;;;;;;;;;5055104;28;20049;-71
2022/09/22 02:51:10;;;;;;;4.65;3.22;;;;;;;;;;5055193;28;20423;-71
2022/09/22 02:53:36;;;;;;;4.22;3.75;;;;;;;;;;5055171;28;20045;-70
2022/09/22 02:56:03;;;;;;;6.47;3.40;;;;;;;;;;5055349;28;20047;-70
2022/09/22 02:58:29;;;;;;;3.58;3.28;;;;;;;;;;5054141;28;20406;-71
2022/09/22 03:00:55;;;;;;;4.75;3.90;;;;;;;;;;5054801;28;20045;-71
2022/09/22 03:03:21;;;;;;;4.43;3.63;;;;;;;;;;5055371;28;20045;-71
2022/09/22 03:05:47;;;;;;;4.47;4.07;;;;;;;;;;5053834;28;20045;-70
2022/09/22 03:08:13;;;;;;;3.92;3.53;;;;;;;;;;5054921;28;20048;-70
2022/09/22 03:10:40;;;;;;;4.50;3.50;;;;;;;;;;5054913;28;20045;-71
2022/09/22 03:13:06;;;;;;;5.90;4.30;;;;;;;;;;5054702;28;20041;-71
2022/09/22 03:15:31;;;;;;;4.90;3.83;;;6.50;99.90;;;;;;5054619;28;20037;-71
2022/09/22 03:17:57;;;;;;;4.22;3.83;;;;;;;;;;5054792;28;20064;-71
2022/09/22 03:20:23;;;;;;;5.60;4.22;;;;;;;;;;5054624;28;20044;-71
2022/09/22 03:22:49;;;;;;;5.00;3.90;;;6.30;99.90;;;;;;5054558;28;20052;-71
2022/09/22 03:25:14;;;;;;;6.95;4.45;;;6.30;99.90;;;;;;5054551;28;20488;-71
2022/09/22 03:27:40;;;;;;;8.18;5.18;;;6.30;99.90;;;;;;5054755;28;20041;-71
2022/09/22 03:30:07;;;;;;;8.07;4.85;;;6.20;99.90;;;;;;5054273;28;20056;-71
2022/09/22 03:32:33;;;;;;;5.63;5.03;;;6.20;99.90;;;;;;5054570;28;20369;-71
2022/09/22 03:34:58;;;;;;;6.25;5.45;;;5.90;99.90;;;;;;5054483;28;20063;-71
2022/09/22 03:37:24;;;;;;;7.95;5.95;;;6.10;99.90;;;;;;5053352;28;20120;-71
2022/09/22 03:39:50;;;;;;;9.38;6.20;;;6.40;99.90;;;;;;5063055;28;20056;-71
2022/09/22 03:42:16;;;;;;;5.93;5.32;;;6.30;99.90;;;;;;5074508;28;20045;-71
2022/09/22 03:44:41;;;;;;;9.10;6.00;;;6.10;99.90;;;;;;5073920;28;20044;-71
2022/09/22 03:47:07;;;;;;;7.35;5.93;;;6.30;99.90;;;;;;5074247;28;20048;-71
2022/09/22 03:49:33;;;;;;;6.97;5.70;;;6.20;99.90;;;;;;5074132;28;20550;-71
2022/09/22 03:51:59;;;;;;;7.85;6.50;;;6.20;99.90;;;;;;5074095;28;20048;-71
2022/09/22 03:54:24;;;;;;;7.78;6.88;;;5.90;99.90;;;;;;5074058;28;20488;-71
2022/09/22 03:56:50;;;;;;;9.70;7.03;;;5.90;99.90;;;;;;5056086;28;20238;-71
2022/09/22 03:59:16;;;;;;;6.85;6.25;;;6.20;99.90;;;;;;5073701;28;20036;-71
2022/09/22 04:01:41;;;;;;;8.02;6.18;;;6.10;99.90;;;;;;5056047;28;20460;-71
2022/09/22 04:04:07;;;;;;;8.27;5.60;;;6.00;99.90;;;;;;5073848;28;20514;-71
2022/09/22 04:06:33;;;;;;;8.18;5.50;;;6.20;99.90;;;;;;5073886;28;20388;-71
2022/09/22 04:09:00;;;;;;;8.10;6.78;;;6.20;99.90;;;;;;5073742;28;20040;-71
2022/09/22 04:11:26;;;;;;;6.75;6.15;;;6.10;99.90;;;;;;5073613;28;20072;-71
2022/09/22 04:13:52;;;;;;;9.05;6.32;;;5.90;99.90;;;;;;5073692;28;20079;-71
2022/09/22 04:16:19;;;;;;;6.47;5.75;;;5.90;99.90;;;;;;5073685;28;20407;-71
2022/09/22 04:18:44;;;;;;;6.97;6.32;;;5.80;99.90;;;;;;5073792;28;20107;-71
2022/09/22 04:21:10;;;;;;;11.02;7.00;;;6.00;99.90;;;;;;5073595;28;20044;-71
2022/09/22 04:23:36;;;;;;;7.85;6.32;;;5.80;99.90;;;;;;5055892;28;20039;-71
2022/09/22 04:26:02;;;;;;;7.47;6.13;;;5.80;99.90;;;;;;5073382;28;20078;-70
2022/09/22 04:28:28;;;;;;;7.18;6.47;;;5.90;99.90;;;;;;5073177;28;20052;-71
2022/09/22 04:30:54;;;;;;;7.55;6.82;;;5.70;99.90;;;;;;5073487;28;20051;-70
2022/09/22 04:33:19;;;;;;;11.25;6.90;;;5.90;99.90;;;;;;5073402;28;20043;-71
2022/09/22 04:35:48;;;;;;;7.65;6.95;;;6.00;99.90;;;;;;5073724;28;20037;-71
2022/09/22 04:38:14;;;;;;;8.23;7.43;;;5.80;99.90;;;;;;5073264;28;20106;-71
2022/09/22 04:40:39;;;;;;;8.25;6.97;;;5.90;99.90;;;;;;5073040;28;20048;-70
2022/09/22 04:43:05;;;;;;;7.63;6.90;;;5.70;99.90;;;;;;5073089;28;20037;-71
2022/09/22 04:45:31;;;;;;;8.05;6.32;;;5.90;99.90;;;;;;5073299;28;20080;-71
2022/09/22 04:47:57;;;;;;;7.22;6.53;;;;;;;;;;5073266;28;20043;-71
2022/09/22 04:50:22;;;;;;;7.28;5.78;;;5.80;99.90;;;;;;5073130;28;20487;-71
2022/09/22 04:52:50;;;;;;;8.60;7.28;;;5.80;99.90;;;;;;5073115;28;20048;-71
2022/09/22 04:55:16;;;;;;;;;;;5.80;99.90;;;;;;5073600;28;20083;-71
2022/09/22 04:57:47;;;;;;;12.40;6.20;;;5.90;99.90;;;;;;5073566;28;20339;-71
2022/09/22 05:00:13;;;;;;;7.45;6.60;;;5.70;99.90;;;;;;5055073;28;20094;-71
2022/09/22 05:02:39;;;;;;;7.45;5.97;;;;;;;;;;5073142;28;20433;-71
2022/09/22 05:05:05;;;;;;;7.82;6.70;;;5.60;99.90;;;;;;5073144;28;20044;-70
2022/09/22 05:07:31;;;;;;;6.30;5.72;;;5.60;99.90;;;;;;5073193;28;20048;-70
2022/09/22 05:09:58;;;;;;;6.85;6.13;;;5.60;99.90;;;;;;5054924;28;20076;-70
2022/09/22 05:12:24;;;;;;;7.28;6.57;;;5.50;99.90;;;;;;5072761;28;20059;-70
2022/09/22 05:14:49;;;;;;;8.20;5.90;;;5.60;99.90;;;;;;5055219;28;20406;-70
2022/09/22 05:17:15;;;;;;;6.28;5.72;;;5.50;99.90;;;;;;5073090;28;20476;-70
2022/09/22 05:19:41;;;;;;;7.78;6.97;;;5.50;99.90;;;;;;5072917;28;20052;-70
2022/09/22 05:22:06;;;;;;;9.20;6.63;;;5.50;99.90;;;;;;5072794;28;20040;-70
2022/09/22 05:24:32;;;;;;;6.82;6.22;;;5.60;99.90;;;;;;5054811;28;20063;-70
2022/09/22 05:26:58;;;;;;;6.68;6.00;;;5.60;99.90;;;;;;5054785;28;20127;-70
2022/09/22 05:29:24;;;;;;;6.70;6.10;;;5.60;99.90;;;;;;5072890;28;20048;-70
2022/09/22 05:31:49;;;;;;;6.43;5.82;;;5.60;99.90;;;;;;5072849;28;20090;-70
2022/09/22 05:34:15;;;;;;;6.63;5.97;;;5.60;99.90;;;;;;5073063;28;20418;-70
2022/09/22 05:36:41;;;;;;;6.38;5.28;;;5.60;99.90;;;;;;5072731;28;20037;-71
2022/09/22 05:39:07;;;;;;;8.90;6.45;;;5.70;99.90;;;;;;5072434;28;20065;-70
2022/09/22 05:41:32;;;;;;;6.95;6.20;;;5.70;99.90;;;;;;5072712;28;20050;-70
2022/09/22 05:43:58;;;;;;;7.72;6.15;;;5.70;99.90;;;;;;5072765;28;20044;-70
2022/09/22 05:46:24;;;;;;;6.70;5.38;;;5.80;99.90;;;;;;5072737;28;20445;-70
2022/09/22 05:48:49;;;;;;;10.48;7.10;;;5.80;99.90;;;;;;5054662;28;20407;-70
2022/09/22 05:51:15;;;;;;;7.63;6.93;;;5.80;99.90;;;;;;5072634;28;20043;-70
2022/09/22 05:53:40;;;;;;;7.00;6.40;;;5.80;99.90;;;;;;5054851;28;20399;-70
2022/09/22 05:56:06;;;;;;;8.52;6.70;;;5.90;99.90;;;;;;5072935;28;20048;-70
2022/09/22 05:58:32;;;;;;;8.48;7.57;;;5.90;99.90;;;;;;5072634;28;20401;-70
2022/09/22 06:00:57;;;;;;;7.90;6.95;;;6.00;99.90;;;;;;5074398;28;20045;-70
2022/09/22 06:03:23;;;;;;;8.32;7.53;;;6.00;99.90;;;;;;5076357;28;20043;-70
2022/09/22 06:05:49;;;;;;;7.97;7.18;;;6.10;99.90;;;;;;5076014;28;20123;-70
2022/09/22 06:08:15;;;;;;;8.40;7.55;;;6.20;99.90;;;;;;5075948;28;20102;-70
2022/09/22 06:10:41;;;;;;;8.30;7.53;;;6.30;99.90;;;;;;5076214;28;20052;-70
2022/09/22 06:13:08;;;;;;;9.07;7.68;;;6.40;99.90;;;;;;5058255;28;20119;-71
2022/09/22 06:15:35;;;;;;;8.63;7.70;;;6.50;99.90;;;;;;5075936;28;20068;-70
2022/09/22 06:18:06;;;;;;;9.48;8.60;;;6.60;99.90;;;;;;5075952;28;20419;-71
2022/09/22 06:20:32;;;;;;;9.90;8.90;;;7.10;99.90;;;;;;5075754;28;20381;-70
2022/09/22 06:22:58;;;;;;;10.30;8.82;;;7.20;99.90;;;;;;5075579;28;20106;-71
2022/09/22 06:25:24;;;;;;;10.30;8.13;;;7.90;99.90;;;;;;5075910;28;20055;-71
2022/09/22 06:28:01;;;;;;;9.38;8.43;;;8.70;99.90;;;;;;5075750;28;20036;-71
2022/09/22 06:30:27;;;;;;;9.43;8.43;;;9.50;99.90;;;;;;5075977;28;20114;-71
2022/09/22 06:32:53;;;;;;;11.23;8.65;;;10.10;99.90;;;;;;5075648;28;20044;-71
2022/09/22 06:35:19;;;;;;;8.77;8.00;;;10.80;99.90;;;;;;5075468;28;20036;-71
2022/09/22 06:37:47;;;;;;;7.68;6.80;;;11.30;99.90;;;;;;5075296;28;20400;-71
2022/09/22 06:40:13;;;;;;;9.70;7.30;;;11.80;99.90;;;;;;5075160;28;20099;-71
2022/09/22 06:42:41;;;;;;;8.77;7.85;;;12.00;99.90;;;;;;5075521;28;20088;-71
2022/09/22 06:45:07;;;;;;;7.70;6.90;;;12.30;99.90;;;;;;5075390;28;20060;-71
2022/09/22 06:47:33;;;;;;;9.63;7.15;;;12.60;99.90;;;;;;5075348;28;20075;-71
2022/09/22 06:50:01;;;;;;;12.52;6.72;;;12.80;99.90;;;;;;5075172;28;20095;-71
2022/09/22 06:52:27;;;;;;;7.65;6.93;;;13.00;99.90;;;;;;5057163;28;20048;-71
2022/09/22 06:54:59;;;;;;;8.48;6.97;;;13.30;99.90;;;;;;5075130;28;20464;-71
2022/09/22 06:57:29;;;;;;;9.32;7.25;;;13.40;99.90;;;;;;5057480;28;20032;-71
2022/09/22 06:59:55;;;;;;;8.32;7.13;;;13.40;99.90;;;;;;5074928;28;20510;-71
2022/09/22 07:02:26;;;;;;;7.47;6.78;;;13.00;99.90;;;;;;5057246;28;20044;-71
2022/09/22 07:04:51;;;;;;;9.57;6.90;;;12.70;99.90;;;;;;5074869;28;20080;-71
2022/09/22 07:07:17;;;;;;;7.72;6.00;;;12.20;99.90;;;;;;5075023;28;20068;-71
2022/09/22 07:09:42;;;;;;;11.40;6.55;;;12.00;99.90;;;;;;5056891;28;20048;-70
2022/09/22 07:12:08;;;;;;;7.43;5.72;;;11.80;99.90;;;;;;5074604;28;20116;-71
2022/09/22 07:14:33;;;;;;;8.15;6.18;;;11.40;99.90;;;;;;5074720;28;20484;-71
2022/09/22 07:16:59;;;;;;;9.35;6.20;;;11.30;99.90;;;;;;5074565;28;20041;-71
2022/09/22 07:19:25;;;;;;;8.48;6.20;;;11.20;99.90;;;;;;5074381;28;20040;-71
2022/09/22 07:21:50;;;;;;;11.05;7.00;;;11.10;99.90;;;;;;5074700;28;20041;-71
2022/09/22 07:24:16;;;;;;;7.95;6.65;;;11.20;99.90;;;;;;5074830;28;20439;-71
2022/09/22 07:26:42;;;;;;;7.55;6.78;;;11.30;99.90;;;;;;5074519;28;20043;-71
2022/09/22 07:29:12;;;;;;;9.35;6.68;;;11.30;99.90;;;;;;5074409;28;20048;-71
2022/09/22 07:31:38;;;;;;;8.55;6.75;;;11.40;99.90;;;;;;5056533;28;20528;-71
2022/09/22 07:34:03;;;;;;;7.40;6.70;;;11.50;99.90;;;;;;5056487;28;20032;-71
2022/09/22 07:36:31;;;;;;;7.45;6.65;;;11.60;99.90;;;;;;5074512;28;20032;-71
2022/09/22 07:39:03;;;;;;;10.80;7.13;;;11.60;99.90;;;;;;5074079;28;20170;-71
2022/09/22 07:41:30;;;;;;;7.88;6.55;;;11.70;99.90;;;;;;5074425;28;20049;-71
2022/09/22 07:46:47;;;;;;;8.38;6.40;;;11.90;99.90;;;;;;4992739;28;20061;-70
2022/09/22 07:49:18;;;;;;;7.40;6.70;;;12.10;99.90;;;;;;4992981;28;20513;-71
2022/09/22 07:51:44;;;;;;;8.77;6.72;;;12.20;99.90;;;;;;4992773;28;20054;-71
2022/09/22 07:54:10;;;;;;;6.20;5.15;;;12.40;99.90;;;;;;4992774;28;20121;-71
2022/09/22 07:56:40;;;;;;;7.40;5.13;;;12.50;99.90;;;;;;4992657;28;20050;-70
2022/09/22 07:59:11;;;;;;;6.60;4.85;;;12.70;99.90;;;;;;4992455;28;20062;-71
2022/09/22 08:01:42;;;;;;;8.32;4.68;;;12.80;99.90;;;;;;4992470;28;20437;-70
2022/09/22 08:04:30;;;;;;;8.00;4.97;;;13.00;99.90;;;;;;4976271;28;20054;-71
2022/09/22 08:06:56;;;;;;;6.68;5.03;;;13.20;99.90;;;;;;4992394;28;20046;-71
2022/09/22 08:09:23;;;;;;;6.57;4.72;;;13.20;99.90;;;;;;4992110;28;20072;-71
2022/09/22 08:11:48;;;;;;;8.70;4.07;;;13.30;99.90;;;;;;4992283;28;20504;-71
2022/09/22 08:14:21;;;;;;;7.57;4.55;;;13.40;99.90;;;;;;4992360;28;20050;-71
2022/09/22 08:16:47;;;;;;;7.43;4.75;;;13.70;99.90;;;;;;4992315;28;20499;-71
2022/09/22 08:19:13;;;;;;;5.88;4.40;;;13.70;99.90;;;;;;4992269;28;20576;-71
2022/09/22 08:21:41;;;;;;;9.32;5.18;;;13.80;99.90;;;;;;4976040;28;20050;-71
2022/09/22 08:24:09;;;;;;;8.38;4.93;;;13.80;99.90;;;;;;5044256;28;20052;-71
2022/09/22 08:26:35;;;;;;;;;;;13.90;99.90;;;;;;5073960;28;20082;-71
2022/09/22 08:29:03;;;;;;;6.10;4.80;;;14.00;99.90;;;;;;5073504;28;19927;-71
2022/09/22 08:31:30;;;;;;;7.40;4.80;;;14.20;99.90;;;;;;5073198;28;20048;-71
2022/09/22 08:33:56;;;;;;;7.15;4.72;;;14.30;99.90;;;;;;5073326;28;20049;-71
2022/09/22 08:36:24;;;;;;;7.07;4.40;;;14.40;99.90;;;;;;5055257;28;20048;-71
2022/09/22 08:38:50;;;;;;;5.50;3.70;;;14.50;99.90;;;;;;5073264;28;20037;-71
2022/09/22 08:41:37;;;;;;;6.70;3.80;;;14.60;99.90;;;;;;5073480;28;20089;-71
2022/09/22 08:44:02;;;;;;;10.30;4.57;;;14.70;99.90;;;;;;5073320;28;20054;-71
2022/09/22 08:46:32;;;;;;;6.72;4.22;;;14.80;99.90;;;;;;5073156;28;20414;-71
2022/09/22 08:52:15;;;;;;;8.57;4.32;;;15.00;99.90;;;;;;5073180;28;20135;-71
2022/09/22 08:54:43;;;;;;;9.05;3.53;;;15.10;99.90;;;;;;5073254;28;20044;-71
2022/09/22 08:57:14;;;;;;;7.03;4.10;;;15.00;99.90;;;;;;5073119;28;20136;-71
2022/09/22 08:59:59;;;;;;;8.65;3.78;;;15.30;99.90;;;;;;5055109;28;20048;-71
2022/09/22 09:02:58;;;;;;;7.47;3.30;;;15.40;99.90;;;;;;5073447;28;20070;-71
2022/09/22 09:06:02;;;;;;;6.65;3.10;;;15.50;99.90;;;;;;5073581;28;20106;-71
2022/09/22 09:08:48;;;;;;;5.22;3.22;;;15.50;99.90;;;;;;5073244;28;20040;-71
2022/09/22 09:11:27;;;;;;;7.50;3.38;;;15.60;99.90;;;;;;5073361;28;20064;-71
2022/09/22 09:14:20;;;;;;;7.45;2.83;;;15.80;99.90;;;;;;5072865;28;20048;-71
2022/09/22 09:16:58;;;;;;;6.20;2.90;;;15.70;99.90;;;;;;5073059;28;20049;-71
2022/09/22 09:19:36;;;;;;;3.03;2.55;;;15.80;99.90;;;;;;5072851;28;20045;-71
2022/09/22 09:22:13;;;;;;;7.13;3.22;;;15.90;99.90;;;;;;5073264;28;20045;-71
2022/09/22 09:24:48;;;;;;;7.47;2.75;;;16.10;99.90;;;;;;5054863;28;20048;-71
2022/09/22 09:27:20;;;;;;;3.80;2.70;;;16.20;99.90;;;;;;5073044;28;20102;-71
2022/09/22 09:30:05;;;;;;;4.65;3.05;;;16.20;99.90;;;;;;5055154;28;20045;-71
2022/09/22 09:32:42;;;;;;;7.03;3.00;;;16.30;99.90;;;;;;5072837;28;20049;-71
2022/09/22 09:35:13;;;;;;;6.15;2.80;;;16.40;99.90;;;;;;5074903;28;20376;-71
2022/09/22 09:37:42;;;;;;;7.18;2.60;;;16.50;99.90;;;;;;5076656;28;20432;-71
2022/09/22 09:40:14;;;;;;;4.60;2.65;;;16.60;99.90;;;;;;5076153;28;20491;-71
2022/09/22 09:42:41;;;;;;;3.72;2.75;;;16.60;99.90;;;;;;5059031;28;20075;-71
2022/09/22 09:45:13;;;;;;;7.72;2.80;;;16.70;99.90;;;;;;5076336;28;20053;-71
2022/09/22 09:48:09;;;;;;;7.20;2.60;;;16.70;99.90;;;;;;5076681;28;20080;-72
2022/09/22 09:50:36;;;;;;;3.97;2.50;;;16.90;99.90;;;;;;5076462;28;20041;-72
2022/09/22 09:53:02;;;;;;;6.37;2.67;;;17.10;99.90;;;;;;5076374;28;20051;-71
2022/09/22 09:55:28;;;;;;;7.22;3.08;;;17.20;99.90;;;;;;5076230;28;20309;-72
2022/09/22 10:01:06;;;;;;;4.80;1.83;;;17.30;99.90;;;;;;5076179;28;20045;-71
2022/09/22 10:03:34;;;;;;;5.85;1.95;;;17.40;99.90;;;;;;5058178;28;20060;-71
2022/09/22 10:06:06;;;;;;;3.83;1.92;;;17.50;99.90;;;;;;5076147;28;20108;-72
2022/09/22 10:08:45;;;;;;;3.03;1.65;;;17.50;99.90;;;;;;5076268;28;20048;-71
2022/09/22 10:11:12;;;;;;;4.85;2.17;;;17.60;99.90;;;;;;5075937;28;20093;-71
2022/09/22 10:13:39;;;;;;;3.60;1.67;;;17.60;99.90;;;;;;5075827;28;20487;-71
2022/09/22 10:16:49;;;;;;;3.78;1.92;;;17.70;99.90;;;;;;5076268;28;20037;-71
2022/09/22 10:19:30;;;;;;;4.03;1.85;;;17.70;99.90;;;;;;4975029;28;20050;-71
2022/09/22 10:22:24;;;;;;;4.47;2.17;;;17.80;99.90;;;;;;4975194;28;20082;-71
2022/09/22 10:24:57;;;;;;;4.90;2.17;;;17.90;99.90;;;;;;4974907;28;20047;-72
2022/09/22 10:27:25;;;;;;;4.47;2.03;;;17.90;99.90;;;;;;4975044;28;20142;-71
2022/09/22 10:30:12;;;;;;;4.57;2.20;;;18.10;99.90;;;;;;4974878;28;20162;-71
2022/09/22 10:32:38;;;;;;;6.20;2.58;;;18.20;99.90;;;;;;4974801;28;20082;-71
2022/09/22 10:35:26;;;;;;;6.38;2.30;;;18.20;99.90;;;;;;4974836;28;20065;-72
2022/09/22 10:37:54;;;;;;;;;;;18.30;99.90;;;;;;4975089;28;20517;-71
2022/09/22 10:40:21;;;;;;;2.85;2.05;;;18.40;99.90;;;;;;4974297;28;20420;-71
2022/09/22 10:42:49;;;;;;;4.32;2.20;;;18.50;99.90;;;;;;4974553;28;20042;-71
2022/09/22 10:45:18;;;;;;;4.97;2.50;;;18.40;99.90;;;;;;4974900;28;20143;-72
2022/09/22 10:48:15;;;;;;;5.70;2.50;;;18.40;99.90;;;;;;4973829;28;20047;-72
2022/09/22 10:50:52;;;;;;;5.40;2.70;;;18.40;99.90;;;;;;4974488;28;20646;-71
2022/09/22 10:53:39;;;;;;;5.67;2.33;;;18.60;99.90;;;;;;5017875;28;20056;-72
2022/09/22 10:56:13;;;;;;;4.57;2.25;;;18.90;99.90;;;;;;5075152;28;20421;-72
2022/09/22 10:59:01;;;;;;;4.72;2.30;;;18.90;99.90;;;;;;5075188;28;20049;-72
2022/09/22 11:01:29;;;;;;;4.22;2.40;;;19.00;99.90;;;;;;5075740;28;20044;-72
2022/09/22 11:04:24;;;;;;;4.85;2.92;;;19.00;99.20;;;;;;5075063;28;20037;-72
2022/09/22 11:14:09;;;;;;;4.82;3.03;;;19.00;97.90;;;;;;5057067;28;20056;-72
2022/09/22 11:16:54;;;;;;;5.63;3.35;;;19.20;98.20;;;;;;5065389;28;20048;-72
2022/09/22 11:19:38;;;;;;;5.43;3.50;;;19.20;96.50;;;;;;5074814;28;20036;-71
2022/09/22 11:22:28;;;;;;;5.32;2.65;;;18.90;95.80;;;;;;5040336;28;20376;-71
2022/09/22 11:25:05;;;;;;;7.53;3.10;;;18.90;99.00;;;;;;5074612;28;20089;-72
2022/09/22 11:28:02;;;;;;;4.50;3.05;;;19.00;98.70;;;;;;5074837;28;20105;-72
2022/09/22 11:30:38;;;;;;;4.60;2.33;;;18.80;98.70;;;;;;5074813;28;20078;-72
2022/09/22 11:33:38;;;;;;;5.05;2.58;;;18.80;99.80;;;;;;5074427;28;20044;-71
2022/09/22 11:36:23;;;;;;;5.82;3.00;;;18.90;98.30;;;;;;5074488;28;20095;-71
2022/09/22 11:39:18;;;;;;;5.30;3.00;;;18.70;99.30;;;;;;5074174;28;20057;-72
2022/09/22 11:42:23;;;;;;;4.63;3.42;;;18.50;98.20;;;;;;5074761;28;20080;-72
2022/09/22 11:44:56;;;;;;;4.00;2.83;;;18.40;96.80;;;;;;5039716;28;20055;-71
2022/09/22 11:47:46;;;;;;;3.55;2.83;;;18.70;97.80;;;;;;5076496;28;20048;-72
2022/09/22 11:50:43;;;;;;;4.90;2.90;;;19.00;97.60;;;;;;5074903;28;20036;-72
2022/09/22 11:53:34;;;;;;;5.90;2.30;;;19.10;97.40;;;;;;5073960;28;20109;-72
2022/09/22 11:56:12;;;;;;;4.55;2.50;;;19.30;97.80;;;;;;5056440;28;20093;-72
2022/09/22 11:58:41;;;;;;;4.18;2.50;;;19.20;97.90;;;;;;5073030;28;20422;-72
2022/09/22 12:01:19;;;;;;;3.78;2.35;;;19.10;99.20;;;;;;5073931;28;20048;-71
2022/09/22 12:03:57;;;;;;;3.65;2.60;;;19.20;98.50;;;;;;5073963;28;20036;-72
2022/09/22 12:06:29;;;;;;;5.47;3.05;;;19.40;96.10;;;;;;5073969;28;20414;-72
2022/09/22 12:09:18;;;;;;;6.00;2.97;;;19.40;96.40;;;;;;5055829;28;20503;-72
2022/09/22 12:11:44;;;;;;;7.47;2.90;;;19.60;98.20;;;;;;5073601;28;20037;-72
2022/09/22 12:14:14;;;;;;;5.75;2.90;;;19.70;98.40;;;;;;5055798;28;20048;-71
2022/09/22 12:16:54;;;;;;;5.30;3.45;;;19.80;99.10;;;;;;5073625;28;20040;-72
2022/09/22 12:19:41;;;;;;;5.43;3.33;;;19.90;97.10;;;;;;5073919;28;20050;-72
2022/09/22 12:22:31;;;;;;;5.70;2.50;;;19.70;96.90;;;;;;5055681;28;20060;-72
2022/09/22 12:24:57;;;;;;;5.20;2.75;;;19.40;97.80;;;;;;5073759;28;20052;-72
2022/09/22 12:27:26;;;;;;;4.47;2.92;;;19.20;97.20;;;;;;5055749;28;20047;-72
2022/09/22 12:30:01;;;;;;;3.90;2.72;;;19.20;98.10;;;;;;5073376;28;20072;-72
2022/09/22 12:32:40;;;;;;;4.18;2.33;;;19.20;98.40;;;;;;5073390;28;20051;-72
2022/09/22 12:35:17;;;;;;;6.60;2.70;;;19.10;98.80;;;;;;5073630;28;20037;-72
2022/09/22 12:37:42;;;;;;;6.57;2.72;;;19.50;99.40;;;;;;5073433;28;20086;-71
2022/09/22 12:40:31;;;;;;;3.33;2.28;;;19.70;98.80;;;;;;5072925;28;20052;-71
2022/09/22 12:42:58;;;;;;;5.72;2.55;;;20.00;97.90;;;;;;5073453;28;20036;-72
2022/09/22 12:45:39;;;;;;;3.80;2.30;;;20.00;97.30;;;;;;5073383;28;20079;-71
2022/09/22 12:48:15;;;;;;;4.70;2.55;;;20.00;95.80;;;;;;5038731;28;20083;-72
2022/09/22 12:50:43;;;;;;;4.68;2.60;;;20.10;96.60;;;;;;5073045;28;20048;-72
2022/09/22 12:53:20;;;;;;;3.65;2.42;;;20.10;96.20;;;;;;5038435;28;20056;-72
2022/09/22 12:55:47;;;;;;;6.88;2.50;;;20.10;97.80;;;;;;5073254;28;20124;-72
2022/09/22 12:58:22;;;;;;;4.65;2.30;;;20.00;94.80;;;;;;5073694;28;20045;-71
2022/09/22 13:01:15;;;;;;;4.85;2.35;;;20.10;95.40;;;;;;5073003;28;20048;-72
2022/09/22 13:03:50;;;;;;;3.05;2.38;;;20.10;95.10;;;;;;5055276;28;20119;-71
2022/09/22 13:06:22;;;;;;;5.93;2.50;;;20.00;94.80;;;;;;5073499;28;20080;-72
2022/09/22 13:08:48;;;;;;;4.93;2.20;;;20.20;96.70;;;;;;5073141;28;20052;-72
2022/09/22 13:11:13;;;;;;;5.47;2.53;;;20.20;97.60;;;;;;5077649;28;20052;-72
2022/09/22 13:13:47;;;;;;;4.32;2.40;;;20.30;95.60;;;;;;5076987;28;20056;-72
2022/09/22 13:16:12;;;;;;;4.88;2.40;;;20.30;94.80;;;;;;5059293;28;20040;-72
2022/09/22 13:18:41;;;;;;;3.28;2.22;;;20.30;96.00;;;;;;5077137;28;20533;-72
2022/09/22 13:21:12;;;;;;;4.93;1.95;;;20.50;95.50;;;;;;5076920;28;20106;-72
2022/09/22 13:23:50;;;;;;;4.00;2.30;;;20.60;94.60;;;;;;5076901;28;20045;-71
2022/09/22 13:26:19;;;;;;;5.82;2.50;;;20.40;94.40;;;;;;5076844;28;20491;-72
2022/09/22 13:29:04;;;;;;;6.38;2.33;;;20.60;94.10;;;;;;5059051;28;20056;-72
2022/09/22 13:31:56;;;;;;;2.60;1.80;;;20.70;94.60;;;;;;5076814;28;20041;-72
2022/09/22 13:34:28;;;;;;;2.90;1.50;;;20.40;95.10;;;;;;5072398;28;20406;-71
2022/09/22 13:37:16;;;;;;;4.80;1.88;;;20.30;95.50;;;;;;5058616;28;20076;-72
2022/09/22 13:39:45;;;;;;;2.53;1.50;;;20.50;94.40;;;;;;5076300;28;20094;-72